Date,TemperatureHighF,TemperatureAvgF,TemperatureLowF,DewpointHighF,DewpointAvgF,DewpointLowF,HumidityHigh,HumidityAvg,HumidityLow,PressureMaxIn,PressureMinIn,WindSpeedMaxMPH,WindSpeedAvgMPH,GustSpeedMaxMPH,PrecipitationSumIn
2013-1-1,75,68,64,66,62,58,90,81,71,29.97,29.87,31,13,31,0.00
2013-1-2,78,69,63,65,61,57,86,76,59,29.97,29.17,30,14,30,0.00
2013-1-3,75,68,63,65,62,57,91,82,66,30.00,29.89,30,12,30,0.00
2013-1-4,79,69,64,66,61,56,90,76,49,30.01,29.90,31,14,31,0.00
2013-1-5,76,68,63,63,60,56,85,76,63,30.01,29.89,34,15,34,0.00
2013-1-6,77,69,64,63,61,57,87,76,60,29.98,29.86,34,14,34,0.00
2013-1-7,74,67,62,64,61,54,85,81,65,30.01,29.88,34,13,34,0.00
2013-1-8,77,69,64,64,61,56,86,75,61,30.00,29.90,33,14,33,0.00
2013-1-9,79,70,62,67,62,56,91,76,56,30.04,29.95,30,12,30,0.00
2013-1-10,78,69,66,64,62,57,86,77,61,30.06,29.97,36,15,36,0.00
2013-1-11,79,70,64,66,62,59,90,78,59,30.04,29.93,34,16,34,0.00
2013-1-12,74,67,64,63,60,58,87,81,66,30.02,29.91,30,13,30,0.00
2013-1-13,79,68,61,63,59,54,88,73,50,29.97,29.88,29,11,29,0.00
2013-1-14,76,68,63,64,61,57,88,78,61,29.98,29.90,30,11,30,0.00
2013-1-15,78,68,62,64,59,54,85,74,55,29.98,29.87,25,13,25,0.00
2013-1-16,79,68,61,64,59,52,90,73,53,29.99,29.88,27,11,27,0.00
2013-1-17,73,67,64,64,61,59,87,82,69,30.02,29.90,30,14,30,0.00
2013-1-18,74,67,64,64,60,56,90,80,68,30.04,29.92,36,15,36,0.00
2013-1-19,70,66,63,62,60,58,91,79,68,30.03,29.92,35,14,35,0.00
2013-1-20,74,67,63,64,61,59,92,81,69,30.02,29.89,33,16,33,0.00
2013-1-21,75,67,63,63,59,55,84,76,62,30.09,29.89,32,14,32,0.00
2013-1-26,65,65,64,60,60,59,85,84,82,29.92,29.91,24,13,24,0.94
2013-1-27,76,67,63,64,60,58,86,77,62,29.94,29.86,34,16,34,0.00
2013-1-28,77,69,63,64,60,56,88,75,59,29.96,29.85,34,15,34,0.00
2013-1-29,73,67,62,65,62,58,95,84,73,29.93,29.83,32,14,32,0.00
2013-1-30,79,69,64,66,63,59,96,81,60,29.89,29.78,30,14,30,0.00
2013-1-31,73,67,65,64,62,60,96,83,70,29.95,29.81,32,13,32,1.94
2013-2-1,73,66,62,60,58,56,87,77,61,29.96,29.89,21,11,21,0.00
2013-2-6,78,70,64,64,62,58,88,77,53,29.94,29.85,28,15,28,1.14
2013-2-7,78,69,62,63,59,56,88,73,54,29.94,29.84,30,14,30,0.00
2013-2-8,77,68,60,63,59,55,88,75,57,29.95,29.85,34,13,34,0.00
2013-2-9,77,68,59,62,59,54,87,74,55,29.96,29.87,34,16,34,0.00
2013-2-10,78,68,61,62,58,54,86,73,51,29.98,29.88,32,13,32,0.00
2013-2-11,78,67,58,64,58,52,87,74,47,29.97,29.86,33,12,33,0.00
2013-2-12,74,67,59,63,58,49,89,74,49,29.95,29.87,31,11,31,0.00
2013-2-13,80,69,62,64,62,58,94,78,54,29.93,29.10,27,12,27,0.00
2013-2-14,78,69,63,64,62,59,93,78,58,29.95,29.84,26,10,26,0.00
2013-2-15,82,73,65,64,58,40,89,63,25,29.93,29.81,27,13,27,1.61
2013-2-16,80,69,63,63,58,38,89,71,23,29.98,29.84,34,12,34,0.00
2013-2-17,76,68,63,61,58,55,86,72,54,29.99,29.86,34,15,34,0.00
2013-2-18,76,67,63,63,60,56,88,79,64,30.01,29.87,33,14,33,0.79
2013-2-19,75,67,62,64,60,55,88,79,66,30.01,29.91,30,16,30,0.00
2013-2-20,79,69,62,65,60,55,86,75,53,29.99,29.87,32,16,32,0.00
2013-2-21,74,68,62,65,62,57,90,81,67,29.99,29.89,30,13,30,0.00
2013-2-22,77,68,60,66,62,56,96,80,64,30.03,25.88,31,14,31,0.00
2013-2-23,79,70,61,66,63,57,90,79,62,25.94,25.64,77,13,77,0.00
2013-2-24,78,70,66,66,64,61,93,81,64,30.00,29.80,28,13,28,0.00
2013-2-25,80,70,66,67,64,60,94,83,62,29.95,29.78,25,10,25,0.01
2013-2-26,80,72,62,67,64,60,95,79,60,29.98,28.40,31,11,31,0.00
2013-2-27,75,69,64,66,64,60,95,84,72,30.01,29.84,30,13,30,0.00
2013-2-28,77,68,63,65,62,59,93,80,63,30.01,29.88,30,13,30,0.00
2013-3-1,74,68,64,66,64,62,96,88,75,29.99,29.87,23,9,23,0.45
2013-3-2,80,67,63,63,61,58,95,81,54,30.05,29.92,33,12,33,0.06
2013-3-3,64,61,59,60,58,55,91,89,80,30.17,30.01,47,24,47,0.02
2013-3-4,68,64,59,62,59,55,88,84,78,30.16,29.95,27,16,29,0.00
2013-3-5,76,69,65,66,64,62,91,83,68,30.07,29.86,22,12,27,0.00
2013-3-6,74,69,65,67,65,64,96,86,78,30.05,29.92,19,11,23,0.00
2013-3-7,72,70,68,65,64,63,87,81,76,30.04,29.91,27,13,30,0.00
2013-3-8,73,70,68,65,64,63,85,80,74,30.03,29.88,31,15,31,0.00
2013-3-9,69,67,66,65,64,-4,95,89,85,30.02,29.89,21,11,21,0.00
2013-3-10,80,69,64,66,64,-4,95,83,61,30.02,29.78,30,14,30,0.00
2013-3-11,81,71,38,67,63,-4,94,78,16,30.00,29.77,30,14,30,0.00
2013-3-12,79,71,65,67,64,-4,91,80,63,30.00,29.80,31,14,31,0.00
2013-3-13,73,68,64,64,62,-4,89,82,72,30.07,29.88,34,13,34,0.00
2013-3-14,74,66,63,62,59,-4,88,78,63,30.08,29.92,39,12,39,0.00
2013-3-15,72,66,38,63,58,-4,88,77,16,30.08,29.84,33,14,33,0.00
2013-3-16,78,69,62,63,59,-4,86,71,57,30.07,29.72,32,16,32,0.00
2013-3-17,84,70,63,66,62,56,95,75,45,30.09,29.68,26,13,27,0.00
2013-3-18,85,73,62,67,63,12,91,73,46,30.05,23.44,25,10,25,0.00
2013-3-19,83,73,64,67,64,12,89,74,52,30.04,29.71,26,11,30,0.00
2013-3-20,90,74,62,67,62,12,88,70,35,30.03,29.64,23,7,23,0.00
2013-3-21,91,74,66,67,61,12,93,71,12,30.26,29.63,25,7,25,0.25
2013-3-22,88,73,61,67,60,44,89,68,25,30.26,30.17,20,8,21,0.01
2013-3-23,87,74,61,68,60,20,90,67,24,30.27,29.94,23,7,23,0.00
2013-3-24,87,71,62,68,62,59,92,77,45,29.98,29.75,17,4,17,0.00
2013-3-25,93,74,66,68,63,55,93,71,32,29.94,29.66,23,6,23,0.00
2013-3-26,79,71,66,65,62,58,86,74,60,30.00,29.74,35,15,37,0.00
2013-3-27,78,69,65,62,60,56,85,72,54,30.03,29.80,39,16,44,0.00
2013-3-28,77,68,64,64,61,58,86,78,63,30.05,29.88,30,14,36,0.00
2013-3-29,73,67,64,63,59,53,86,75,63,30.08,29.88,30,14,32,0.00
2013-3-30,80,69,62,65,60,52,96,75,54,30.09,29.81,34,14,36,0.00
2013-3-31,79,72,66,68,66,62,97,82,67,29.97,29.77,32,13,32,0.00
2013-4-1,80,71,66,70,66,62,94,85,67,29.99,29.76,28,12,28,0.21
2013-4-2,79,71,67,67,65,63,94,83,64,29.98,29.77,30,11,30,0.25
2013-4-3,82,71,66,67,64,61,94,80,56,30.00,29.73,27,10,27,0.00
2013-4-4,84,73,67,67,65,61,88,76,53,29.99,29.71,24,9,24,0.00
2013-4-5,81,72,68,69,65,61,91,81,61,30.02,29.78,27,12,27,0.06
2013-4-6,81,71,65,65,63,60,88,76,54,30.00,29.23,30,13,30,0.00
2013-4-7,80,70,64,65,62,58,88,76,54,30.01,29.71,24,12,27,0.00
2013-4-8,89,72,65,66,62,56,90,73,37,29.96,29.70,28,13,28,0.00
2013-4-9,78,71,66,68,65,63,96,83,70,29.93,29.73,24,12,29,0.00
2013-4-10,81,72,66,67,64,62,96,78,57,29.92,27.60,27,12,28,0.00
2013-4-11,87,74,66,68,64,61,88,74,45,29.87,29.64,30,9,30,0.00
2013-4-12,84,73,66,67,64,60,88,74,48,29.87,29.61,27,12,30,0.00
2013-4-13,82,72,64,68,64,59,94,78,58,29.90,29.62,26,12,29,0.00
2013-4-14,84,72,67,69,66,64,93,82,57,29.91,29.66,23,10,24,0.04
2013-4-15,87,74,66,68,66,62,93,76,47,29.95,29.64,23,10,26,0.01
2013-4-16,82,74,69,68,66,64,92,76,59,29.95,29.69,31,14,34,0.00
2013-4-17,81,72,68,67,64,61,86,76,56,29.94,29.73,29,13,31,0.00
2013-4-18,80,71,66,68,65,62,93,81,57,29.94,29.70,26,11,29,0.00
2013-4-19,81,69,66,65,63,62,90,82,58,29.93,29.75,22,8,22,0.00
2013-4-20,77,71,68,65,64,62,84,77,63,29.91,29.79,11,9,18,0.13
2013-4-26,73,72,71,63,62,62,74,71,67,29.86,29.85,21,13,21,0.02
2013-4-27,79,71,64,65,61,56,87,73,55,29.89,29.80,28,13,28,0.00
2013-4-28,82,72,65,64,61,56,81,67,46,29.86,29.75,24,12,24,0.00
2013-4-29,87,75,64,68,64,57,96,70,40,29.83,29.74,24,11,24,0.09
2013-4-30,89,76,66,69,65,57,93,73,40,29.84,29.75,22,7,22,0.11
2013-5-1,91,79,66,70,66,61,92,66,39,29.89,29.77,23,7,23,0.00
2013-5-2,92,78,66,70,68,64,100,72,42,29.85,29.77,25,8,25,0.04
2013-5-3,71,70,69,68,66,64,93,89,83,29.98,29.92,17,7,17,0.05
2013-5-4,80,70,65,65,61,57,88,73,52,29.99,29.90,34,11,34,0.00
2013-5-5,83,72,63,68,64,55,96,77,47,30.05,29.92,31,11,31,0.15
2013-5-6,86,76,65,66,63,60,100,65,46,30.04,29.93,28,13,28,0.00
2013-5-7,82,74,61,63,59,50,85,62,41,30.04,29.94,27,14,27,0.00
2013-5-8,82,74,59,64,58,36,85,60,23,30.05,29.94,27,14,29,0.00
2013-5-9,86,74,64,67,64,59,90,73,45,30.05,29.96,23,9,23,0.00
2013-5-10,76,71,66,70,67,64,100,88,68,30.03,29.91,21,7,21,0.41
2013-5-11,82,71,66,70,67,63,99,81,57,29.99,29.68,23,8,23,0.61
2013-5-12,76,70,67,68,66,64,93,86,73,29.96,29.73,23,8,23,0.04
2013-5-13,78,70,67,67,64,62,93,83,65,29.92,29.76,34,13,34,0.00
2013-5-14,75,69,66,65,62,60,89,79,64,29.95,29.78,33,14,33,0.00
2013-5-15,79,69,66,67,62,59,88,77,57,29.93,29.77,32,14,36,0.00
2013-5-16,79,70,64,66,62,56,87,75,58,29.94,29.76,32,12,32,0.00
2013-5-17,81,70,65,66,63,60,88,80,57,29.90,29.80,27,11,27,0.00
2013-5-18,82,72,66,68,64,62,89,78,55,29.87,29.69,27,11,27,0.00
2013-5-19,82,72,67,68,65,62,92,81,57,29.85,29.68,28,10,28,0.12
2013-5-20,83,72,66,69,66,63,97,82,57,29.85,29.69,23,8,23,0.01
2013-5-21,84,71,66,71,66,64,99,86,54,29.80,29.65,22,6,22,0.11
2013-5-22,85,70,64,70,66,64,99,89,55,29.86,29.69,14,3,14,0.61
2013-5-23,79,70,64,68,66,63,99,87,65,29.84,29.70,27,6,27,0.01
2013-5-24,86,71,67,70,67,63,99,88,48,29.85,29.71,15,4,15,0.40
2013-5-25,80,70,66,68,66,64,95,86,64,29.89,29.73,22,8,22,0.13
2013-5-26,84,73,67,70,66,63,93,79,55,29.85,29.69,21,9,21,0.00
2013-5-27,87,73,66,69,66,62,96,80,48,29.85,29.67,24,8,24,0.00
2013-5-28,85,71,65,70,66,63,99,84,51,29.86,29.65,27,7,27,0.70
2013-5-29,89,70,64,70,66,63,99,88,45,29.85,29.68,18,4,18,0.96
2013-5-30,82,69,64,70,66,63,99,91,59,29.86,29.71,13,4,13,1.15
2013-5-31,90,71,65,70,67,64,99,87,43,29.85,29.68,21,6,21,0.14
2013-6-1,82,68,65,70,66,64,99,93,62,29.84,29.73,24,4,24,1.41
2013-6-2,89,73,62,70,66,61,99,80,45,29.87,29.63,23,5,23,0.00
2013-6-3,92,74,65,71,67,63,97,82,44,29.80,29.64,18,5,18,0.22
2013-6-4,93,73,66,70,66,63,98,82,39,29.84,29.65,22,5,22,0.48
2013-6-5,85,71,63,71,66,62,99,85,50,29.83,29.65,18,5,18,0.06
2013-6-6,86,71,63,69,66,62,99,85,53,29.80,29.61,23,6,23,1.68
2013-6-7,82,72,65,69,66,63,97,81,62,29.83,29.63,20,7,20,0.02
2013-6-8,77,70,65,67,64,61,92,82,69,29.83,29.69,21,7,21,0.01
2013-6-9,81,72,64,68,64,60,89,79,59,29.84,29.65,23,8,23,0.00
2013-6-10,78,70,66,69,65,61,99,84,66,29.83,29.70,27,7,27,1.41
2013-6-11,80,71,62,68,64,60,93,77,57,29.87,29.68,23,9,23,0.02
2013-6-12,77,71,66,68,65,63,93,83,70,29.87,29.75,19,7,19,0.00
2013-6-13,82,71,66,69,66,62,99,85,53,29.82,29.68,17,4,17,0.69
2013-6-14,82,71,64,69,66,62,98,85,56,29.81,29.63,23,7,23,0.17
2013-6-15,78,72,67,70,66,63,97,84,67,29.81,29.67,23,6,23,0.24
2013-6-16,85,72,65,72,66,61,97,81,51,29.80,29.60,21,5,21,0.38
2013-6-17,86,73,68,70,67,64,95,82,49,29.78,29.61,23,7,23,0.24
2013-6-18,80,71,66,72,67,65,99,85,64,29.83,29.60,22,6,22,0.96
2013-6-19,81,71,66,70,67,64,99,86,62,29.78,29.61,23,6,23,0.60
2013-6-20,77,70,64,69,66,63,99,89,71,29.81,29.67,21,5,21,0.46
2013-6-21,81,71,67,67,65,62,96,83,55,29.82,29.68,24,8,24,0.12
2013-6-22,77,71,66,68,65,60,91,82,69,29.82,29.68,29,10,29,0.00
2013-6-23,76,70,65,66,64,61,92,82,66,29.81,29.70,26,11,30,0.06
2013-6-24,85,70,66,67,64,61,94,82,55,29.86,29.69,26,8,27,0.37
2013-6-25,77,69,66,68,64,60,94,84,71,29.86,29.75,70,9,70,0.26
2013-6-26,77,71,64,69,65,60,93,83,70,29.85,29.68,29,10,29,0.26
2013-6-27,74,69,67,67,65,64,94,88,76,29.83,29.71,30,8,30,0.00
2013-6-28,78,70,65,66,64,61,99,84,58,29.81,29.68,19,7,19,0.00
2013-6-29,83,69,63,66,63,61,99,84,52,29.87,29.63,22,5,22,0.83
2013-6-30,82,70,63,69,65,60,99,85,49,29.83,29.58,23,5,23,0.25
2013-7-1,81,69,65,67,66,62,99,89,55,29.81,29.70,17,3,17,0.44
2013-7-2,83,70,64,69,65,61,98,84,53,29.83,29.69,17,5,51,0.00
2013-7-3,83,72,66,70,66,61,99,82,51,29.82,29.64,21,6,21,0.00
2013-7-4,81,70,64,69,66,63,99,87,59,29.81,29.62,28,7,28,0.92
2013-7-5,80,71,63,68,64,61,97,79,58,29.81,29.60,28,9,28,0.01
2013-7-6,84,71,65,68,64,61,98,80,49,29.77,29.58,26,8,29,0.18
2013-7-7,76,69,65,66,64,63,95,86,69,29.78,29.63,27,9,27,0.00
2013-7-8,79,70,65,67,64,62,90,82,64,29.83,29.70,28,9,28,0.00
2013-7-9,78,72,65,68,65,63,93,80,66,29.81,29.66,28,11,28,0.00
2013-7-10,82,72,68,68,66,64,95,80,58,29.77,29.60,25,8,25,0.13
2013-7-11,73,68,64,67,65,62,99,90,77,29.77,29.66,28,5,28,0.00
2013-7-12,82,70,66,69,65,63,98,86,61,29.79,29.65,28,5,28,0.32
2013-7-13,140,70,62,70,64,60,99,82,58,30.23,29.60,28,8,28,3.32
2013-7-14,80,71,64,67,64,59,89,79,60,30.22,29.53,26,11,26,0.00
2013-7-15,81,71,65,67,64,61,90,79,60,29.75,29.56,30,12,30,0.00
2013-7-16,79,70,66,67,64,61,88,80,62,29.77,29.59,27,10,27,0.00
2013-7-17,79,70,65,69,66,60,99,85,63,29.77,29.60,34,8,34,0.34
2013-7-18,79,72,66,69,66,65,99,85,66,29.76,29.63,22,7,22,0.01
2013-7-19,72,69,66,68,66,64,99,90,80,29.78,29.65,30,8,30,0.04
2013-7-20,80,72,68,71,65,62,92,81,57,29.74,29.57,29,9,29,0.00
2013-7-21,80,70,65,67,66,63,99,85,58,29.78,29.60,29,7,29,0.78
2013-7-22,78,69,65,67,65,63,99,87,66,29.79,29.67,25,8,25,0.07
2013-7-23,80,70,66,68,66,63,94,85,62,29.80,29.62,28,11,28,0.00
2013-7-24,78,70,65,68,66,63,97,86,72,29.72,29.58,29,7,29,0.00
2013-7-25,81,72,67,70,67,64,94,85,64,29.75,29.58,23,7,23,0.02
2013-7-26,80,72,68,67,64,57,92,78,49,29.79,29.64,34,12,34,0.00
2013-7-27,75,69,65,65,63,59,97,81,58,29.78,29.66,31,9,31,0.31
2013-7-28,78,69,65,68,66,64,99,91,68,29.78,29.59,22,7,22,1.58
2013-7-29,76,70,66,67,65,58,99,85,55,29.83,29.68,23,8,29,0.00
2013-7-30,76,69,65,67,64,62,93,85,72,29.84,29.71,25,8,25,0.22
2013-7-31,80,69,65,67,64,62,95,85,63,29.83,29.66,26,8,26,0.01
2013-8-1,78,68,64,66,64,61,96,86,68,29.78,29.66,23,7,23,0.39
2013-8-2,77,68,65,67,64,62,98,87,67,29.78,29.63,29,10,29,0.26
2013-8-3,80,70,67,68,66,64,98,88,65,29.79,29.59,27,9,27,0.48
2013-8-4,79,70,66,66,64,59,95,83,53,29.78,29.58,25,9,25,0.06
2013-8-5,81,71,65,68,65,59,95,82,48,29.77,29.58,27,10,28,0.04
2013-8-6,80,72,68,66,64,60,90,77,61,29.74,29.59,28,12,28,0.00
2013-8-7,80,71,66,66,63,60,87,76,58,29.75,29.57,31,13,31,0.00
2013-8-8,80,70,63,67,63,58,95,80,59,29.73,29.55,31,9,31,0.01
2013-8-9,79,69,62,67,64,60,99,85,61,29.74,29.60,24,6,27,0.12
2013-8-10,77,70,66,66,64,62,95,82,66,29.74,29.60,30,10,30,0.00
2013-8-11,82,70,63,69,65,60,99,85,49,29.76,29.51,26,4,26,0.31
2013-8-12,82,70,65,71,66,62,99,87,52,29.68,29.51,23,5,23,0.21
2013-8-13,82,71,64,69,66,63,99,86,55,29.70,29.49,21,5,21,0.02
2013-8-14,83,73,65,72,67,64,96,83,61,29.66,29.49,20,5,185,0.01
2013-8-15,84,73,67,72,67,64,99,83,55,29.67,29.44,22,7,22,0.00
2013-8-16,81,71,65,70,66,63,99,85,57,29.72,29.49,34,6,34,1.13
2013-8-17,78,70,66,69,65,63,99,86,64,29.76,29.61,21,5,21,0.01
2013-8-18,80,70,65,69,66,62,99,86,63,29.76,29.52,25,6,25,0.60
2013-8-19,81,71,65,68,65,62,98,82,60,29.70,29.49,28,8,28,0.50
2013-8-20,81,71,64,67,64,62,94,81,61,29.70,29.49,31,9,31,0.00
2013-8-21,80,70,67,69,65,63,95,85,62,29.72,29.56,23,6,23,0.28
2013-8-22,78,70,64,70,66,63,99,89,69,29.68,29.49,21,6,21,0.72
2013-8-23,84,69,63,69,65,62,99,88,54,29.70,29.46,19,3,19,1.03
2013-8-24,82,69,64,69,65,59,99,87,57,29.76,29.53,20,5,20,0.90
2013-8-25,74,69,64,67,65,63,99,88,73,29.76,29.59,20,7,20,0.01
2013-8-26,83,71,64,68,64,56,99,79,44,29.75,29.53,26,6,26,0.00
2013-8-27,83,69,63,69,65,60,99,88,47,29.72,29.52,17,5,17,0.67
2013-8-28,79,70,64,68,65,62,99,86,65,29.72,29.55,21,8,21,0.01
2013-8-29,78,70,65,70,65,62,96,84,59,29.72,29.57,29,8,29,0.00
2013-8-30,81,71,64,70,66,61,99,85,55,29.73,29.55,22,6,22,0.00
2013-8-31,81,69,64,67,65,62,99,90,55,29.74,29.53,23,4,24,0.14
2013-9-1,81,70,64,67,64,61,99,85,57,29.70,29.48,27,6,28,0.11
2013-9-2,78,69,64,68,64,60,99,86,64,29.74,29.55,16,5,17,1.10
2013-9-3,83,70,63,70,64,61,99,85,53,29.75,29.52,35,5,35,0.38
2013-9-4,80,70,63,70,65,61,97,85,62,29.74,29.50,17,5,17,0.33
2013-9-5,82,71,64,69,66,62,99,86,57,29.75,29.51,17,4,17,0.06
2013-9-6,84,70,64,70,65,60,99,87,52,29.69,29.41,23,5,23,0.58
2013-9-7,78,69,63,69,65,62,99,89,65,29.72,29.53,17,3,17,0.01
2013-9-8,82,71,63,70,66,62,99,88,58,29.78,29.45,21,4,21,0.00
2013-9-9,84,69,63,70,65,18,99,89,53,29.69,29.53,17,2,17,1.65
2013-9-10,84,70,64,70,66,62,99,88,54,29.70,29.49,16,3,16,2.26
2013-9-11,80,68,65,70,66,65,99,94,63,29.71,29.50,17,3,17,0.05
2013-9-12,84,71,64,69,65,60,99,86,48,29.67,29.42,23,4,23,0.02
2013-9-13,85,70,66,71,66,61,99,86,45,29.60,29.36,23,4,23,1.11
2013-9-14,84,71,66,70,66,64,99,88,55,31.07,29.45,15,4,15,0.17
2013-9-15,82,71,66,70,66,64,99,86,59,29.75,29.34,18,6,18,0.41
2013-9-16,82,70,64,70,66,62,99,90,62,29.78,29.43,30,4,30,2.00
2013-9-17,82,70,63,69,65,60,99,85,54,29.64,29.42,19,5,21,0.00
2013-9-18,82,69,66,70,67,64,99,93,58,29.68,29.47,13,2,13,1.51
2013-9-19,79,70,65,69,67,64,99,89,64,29.69,29.50,17,5,17,0.04
2013-9-20,84,72,66,68,67,61,99,86,57,29.65,29.41,22,4,22,0.01
2013-9-21,84,72,67,71,68,64,99,89,54,29.60,29.30,20,4,20,0.01
2013-9-22,74,68,64,69,67,63,99,97,79,29.64,29.46,18,3,18,0.31
2013-9-23,82,72,64,70,66,62,99,84,56,29.64,29.44,19,5,19,0.00
2013-9-24,84,73,68,72,67,64,93,81,57,29.62,29.36,23,8,23,0.00
2013-9-25,80,71,68,67,64,56,94,78,44,29.61,29.42,30,8,30,0.00
2013-9-26,81,70,65,67,64,61,95,83,60,29.65,29.42,57,5,57,0.57
2013-9-27,81,71,64,66,63,60,98,78,53,29.66,29.40,22,6,22,0.00
2013-9-28,81,70,65,68,66,62,99,85,54,29.66,29.49,17,4,17,0.17
2013-9-29,84,71,66,68,66,63,99,86,54,29.65,29.40,21,5,21,0.14
2013-9-30,81,69,64,68,65,58,99,88,47,29.64,29.45,20,-15,20,1.10
2013-10-1,81,69,64,69,66,63,99,91,55,29.67,29.46,14,-106,14,0.56
2013-10-2,80,69,62,69,66,61,99,90,57,29.62,22.30,16,-139,16,1.12
2013-10-3,81,70,64,70,66,62,99,89,65,29.64,29.46,20,-86,20,0.01
2013-10-4,78,68,64,68,65,62,99,89,61,29.63,29.50,13,-113,13,0.14
2013-10-5,83,71,64,70,66,62,98,84,52,29.64,29.40,15,-79,15,0.37
2013-10-6,81,70,65,71,66,63,99,88,58,29.64,29.46,17,-143,17,0.69
2013-10-7,81,71,64,68,65,62,99,84,61,29.65,29.43,29,-52,29,0.14
2013-10-8,79,71,66,68,66,64,99,85,68,29.65,29.48,22,-4,22,0.00
2013-10-9,80,71,66,67,64,62,92,80,62,29.62,29.43,30,-2,30,0.00
2013-10-10,83,71,65,68,65,60,93,81,49,29.62,29.43,27,-24,27,0.26
2013-10-11,80,70,66,68,64,60,97,83,60,29.61,29.44,40,-87,40,0.39
2013-10-12,81,70,64,68,64,59,97,82,53,29.62,29.44,22,3,22,0.31
2013-10-13,76,68,63,67,63,60,93,83,68,29.64,29.46,23,-45,23,0.12
2013-10-14,81,70,62,68,63,57,98,80,44,29.62,29.39,18,-2,18,0.11
2013-10-15,80,69,65,69,66,64,99,91,68,29.64,29.45,21,-98,21,0.19
2013-10-16,81,69,64,69,65,63,99,89,58,29.65,29.42,18,-115,18,0.44
2013-10-17,81,70,62,68,65,61,98,85,65,29.65,29.41,18,-107,18,0.09
2013-10-18,83,70,65,70,65,62,98,84,55,29.61,29.42,17,-51,17,0.06
2013-10-19,80,69,64,69,65,61,99,87,57,29.61,29.39,22,-118,22,1.20
2013-10-20,82,70,62,69,65,61,99,87,54,29.59,29.39,18,-118,18,2.08
2013-10-21,82,69,64,68,65,63,99,88,54,29.62,29.44,25,-106,25,0.21
2013-10-22,80,69,64,68,65,62,99,87,56,29.60,29.42,22,-159,22,1.07
2013-10-23,82,69,64,70,65,60,99,88,50,29.58,29.39,15,-140,15,0.86
2013-10-24,77,70,64,69,66,63,99,91,65,29.60,29.45,18,-74,18,0.19
2013-10-25,82,71,66,68,66,64,99,86,59,29.60,29.38,22,-141,22,0.64
2013-10-26,82,69,64,68,66,63,99,91,56,29.60,29.41,19,-102,19,0.94
2013-10-27,80,70,64,69,66,63,99,87,62,29.58,29.38,15,-10,15,0.33
2013-10-28,78,70,66,70,67,64,99,90,69,29.59,29.41,18,-100,18,1.04
2013-10-29,80,71,63,69,65,61,96,84,64,29.60,29.41,21,-14,21,0.12
2013-10-30,80,71,65,69,66,62,99,84,63,29.59,29.39,21,-11,21,0.00
2013-10-31,82,71,64,70,65,62,99,83,56,29.59,29.36,23,-67,23,0.01
2013-11-1,81,70,62,69,64,59,97,83,55,29.59,28.78,26,-124,26,0.26
2013-11-2,80,69,61,67,64,61,99,85,62,29.61,29.40,20,-62,20,0.00
2013-11-3,78,69,63,67,64,60,99,85,58,29.70,29.37,18,-96,18,0.01
2013-11-4,81,70,63,69,63,60,95,80,52,29.59,29.38,23,-28,23,0.17
2013-11-5,82,70,64,67,63,59,94,79,50,29.57,29.36,22,-29,22,0.00
2013-11-6,83,72,65,68,66,59,99,82,47,29.54,22.30,20,-27,20,0.00
2013-11-7,82,72,64,70,65,63,99,82,56,29.53,22.66,36,-28,36,0.08
2013-11-8,81,70,63,68,65,61,99,87,54,29.72,29.31,21,-172,21,0.81
2013-11-9,81,69,64,70,66,63,99,89,58,29.72,28.65,122,-105,122,1.44
2013-11-10,76,69,64,68,65,10,97,88,69,29.66,29.40,25,-60,25,0.73
2013-11-11,75,69,65,67,65,62,93,86,75,29.67,29.41,23,10,23,0.73
2013-11-12,74,70,66,67,65,63,93,85,76,29.54,29.39,28,-66,28,0.08
2013-11-13,76,69,64,67,64,61,97,86,71,29.72,29.39,26,-50,26,0.11
2013-11-14,82,70,64,68,64,60,95,82,61,29.73,29.36,27,-8,27,0.21
2013-11-15,81,70,64,68,66,62,96,85,61,29.54,29.36,23,-13,23,0.09
2013-11-16,74,70,66,67,65,63,92,86,75,29.68,29.40,26,-28,26,0.00
2013-11-17,79,72,66,67,65,63,93,81,63,29.53,29.33,27,-2,27,0.00
2013-11-18,77,70,64,67,64,62,92,83,67,29.54,29.35,25,-32,25,0.00
2013-11-19,77,70,63,65,63,59,91,77,56,29.53,29.34,23,-27,23,0.00
2013-11-20,83,70,61,69,62,55,99,79,42,29.58,29.34,17,-56,17,0.51
2013-11-21,79,70,63,66,63,60,95,80,61,29.58,29.39,24,-24,24,0.01
2013-11-22,79,70,63,67,64,60,92,80,63,29.56,29.34,23,-10,23,0.00
2013-11-23,79,70,65,66,63,60,92,81,54,29.52,29.31,23,-9,23,0.00
2013-11-24,78,70,63,67,64,60,91,81,63,29.54,29.36,27,-6,27,0.01
2013-11-25,78,70,64,69,64,62,94,84,64,29.55,29.35,25,-78,25,0.00
2013-11-26,81,71,62,69,64,59,95,81,53,29.52,29.31,20,-44,20,0.00
2013-11-27,76,69,64,67,63,58,93,82,65,29.54,29.37,23,-24,23,0.01
2013-11-28,69,66,65,66,64,58,99,91,76,29.59,29.44,27,3,27,1.93
2013-11-29,74,68,65,65,62,59,89,80,69,29.58,29.43,27,-4,27,0.00
2013-11-30,73,68,65,64,62,58,90,80,67,29.57,27.62,116,-9,116,0.00
2013-12-1,76,68,64,64,61,56,89,78,54,29.57,29.41,24,-8,24,0.00
2013-12-2,84,69,60,66,60,2,95,76,33,29.56,28.77,149,-36,149,0.00
2013-12-3,80,69,63,68,63,59,93,82,55,29.60,29.40,16,-32,16,0.01
2013-12-4,77,69,64,64,62,58,94,79,64,29.58,29.40,29,8,29,0.00
2013-12-5,76,69,63,67,62,55,94,78,64,29.58,29.39,28,9,28,0.47
2013-12-6,78,71,66,67,64,58,89,81,65,29.55,29.37,27,10,27,0.21
2013-12-7,78,70,64,66,63,59,89,78,64,29.56,29.31,28,0,28,0.00
2013-12-8,75,68,64,64,62,60,90,81,67,29.56,29.41,32,-4,32,0.00
2013-12-9,79,69,62,64,61,58,90,77,54,29.56,29.35,23,-8,23,0.00
2013-12-10,80,70,60,65,59,53,89,72,42,29.59,29.33,24,-5,24,0.00
2013-12-11,77,70,63,67,63,59,89,80,65,29.55,29.35,27,3,27,0.01
2013-12-12,76,70,66,68,65,62,97,85,73,29.53,29.39,30,4,30,0.32
2013-12-13,76,69,65,65,62,58,91,79,59,29.51,29.30,31,13,31,0.00
2013-12-14,72,68,62,66,63,58,91,85,72,29.51,29.36,30,-86,30,0.00
2013-12-15,77,67,63,66,64,60,97,87,63,29.61,29.40,32,-65,32,0.52
2013-12-16,77,69,64,68,64,58,95,84,64,29.53,29.35,27,4,27,0.00
2013-12-17,75,68,64,66,62,59,90,83,73,29.55,29.37,28,-13,28,0.00
2013-12-18,71,67,63,65,61,57,94,82,74,29.58,26.84,56,-12,56,0.00
2013-12-19,73,67,61,64,61,57,88,81,69,29.55,29.37,30,-6,30,0.00
2013-12-20,77,68,63,64,62,58,91,79,62,29.54,29.31,31,12,31,0.00
2013-12-21,77,68,58,65,61,55,94,78,55,29.52,29.31,30,-50,30,0.00
2013-12-22,77,68,62,64,61,56,88,78,62,29.53,29.29,27,0,27,0.00
2013-12-23,76,68,61,63,60,57,89,76,60,29.54,29.34,33,2,33,0.00
2013-12-24,75,67,62,62,59,5,86,75,63,31.00,29.35,36,14,36,0.00
2013-12-25,76,67,58,62,58,52,88,73,49,29.57,29.32,29,-10,29,0.00
2013-12-26,75,67,61,64,60,56,89,78,60,29.57,22.67,28,8,28,0.00
2013-12-27,76,68,61,63,59,53,86,74,58,29.58,29.36,29,12,29,0.00
2013-12-28,80,69,61,65,60,53,86,74,51,29.57,29.31,30,12,30,0.00
2013-12-29,76,70,64,67,64,60,92,82,70,29.50,29.32,33,13,33,0.00
2013-12-30,76,69,65,66,62,59,88,80,68,29.51,29.34,35,15,35,0.00
2013-12-31,75,68,64,65,62,58,92,80,66,29.54,29.35,28,4,28,0.00
2014-1-1,73,68,66,64,63,61,93,83,71,29.50,29.37,1,-10,1,0.00
2014-1-2,74,67,65,65,64,57,96,88,75,29.65,29.34,16,-7,16,0.00